createdAt,value
2023-05-07T00:02:25.930Z,11.501156
2023-05-07T00:07:27.247Z,11.501156
2023-05-07T00:12:28.609Z,11.69843
2023-05-07T00:17:30.125Z,10.81683
2023-05-07T00:22:31.478Z,11.398502
2023-05-07T00:27:32.818Z,11.297546
2023-05-07T00:32:34.720Z,11.345106
2023-05-07T00:37:36.217Z,10.72323
2023-05-07T00:42:37.540Z,10.361072
2023-05-07T00:47:39.350Z,10.570246
2023-05-07T00:52:40.746Z,10.586136
2023-05-07T00:57:42.007Z,10.305016
2023-05-07T01:02:43.927Z,10.402988
2023-05-07T01:07:45.603Z,10.31385
2023-05-07T01:12:46.950Z,10.09937
2023-05-07T01:17:48.313Z,10.245446
2023-05-07T01:22:49.948Z,10.267944
2023-05-07T01:27:51.288Z,11.430716
2023-05-07T01:32:52.733Z,11.570618
2023-05-07T01:37:54.055Z,11.145782
2023-05-07T01:42:55.500Z,11.016316
2023-05-07T01:47:56.832Z,11.40777
2023-05-07T01:52:58.165Z,10.982772
2023-05-07T01:57:59.593Z,11.618274
2023-05-07T02:03:01.134Z,10.783844
2023-05-07T02:08:02.786Z,11.043782
2023-05-07T02:13:04.363Z,11.386478
2023-05-07T02:18:05.861Z,11.897534
2023-05-07T02:23:07.250Z,11.86984
2023-05-07T02:28:08.704Z,11.36132
2023-05-07T02:33:10.364Z,11.883856
2023-05-07T02:38:11.995Z,12.02464
2023-05-07T02:43:13.614Z,11.555948
2023-05-07T02:48:15.299Z,11.848982
2023-05-07T02:53:16.879Z,11.580658
2023-05-07T02:58:18.469Z,10.889982
2023-05-07T03:03:20.101Z,11.313936
2023-05-07T03:08:21.726Z,11.495482
2023-05-07T03:13:23.550Z,12.155708
2023-05-07T03:18:25.710Z,11.122946
2023-05-07T03:23:27.338Z,11.928866
2023-05-07T03:28:28.910Z,10.831066
2023-05-07T03:33:30.280Z,10.178482
2023-05-07T03:38:31.576Z,11.020512
2023-05-07T03:43:33.269Z,10.646154
2023-05-07T03:48:34.506Z,10.352348
2023-05-07T03:53:35.777Z,10.659236
2023-05-07T03:58:37.090Z,10.391184
2023-05-07T04:03:38.504Z,10.417062
2023-05-07T04:08:39.970Z,10.40162
2023-05-07T04:13:41.575Z,10.370722
2023-05-07T04:18:43.092Z,10.332606
2023-05-07T04:23:44.817Z,9.996054
2023-05-07T04:28:46.376Z,10.261122
2023-05-07T04:33:47.868Z,10.268736
2023-05-07T04:38:49.453Z,9.750962
2023-05-07T04:43:50.682Z,9.77038
2023-05-07T04:48:52.929Z,10.020726
2023-05-07T04:53:54.427Z,10.070632
2023-05-07T04:58:55.681Z,10.107542
2023-05-07T05:03:57.160Z,9.995606
2023-05-07T05:08:58.716Z,9.972946
2023-05-07T05:14:00.344Z,10.161386
2023-05-07T05:19:02.230Z,10.337626
2023-05-07T05:24:03.744Z,9.48782
2023-05-07T05:29:05.474Z,10.043438
2023-05-07T05:34:07.076Z,9.835852
2023-05-07T05:39:08.384Z,9.901324
2023-05-07T05:44:09.680Z,10.14521
2023-05-07T05:49:11.247Z,10.13423
2023-05-07T05:54:12.531Z,10.01767
2023-05-07T05:59:13.895Z,10.207602
2023-05-07T06:04:15.253Z,10.460808
2023-05-07T06:09:16.590Z,10.768564
2023-05-07T06:14:17.875Z,10.87917
2023-05-07T06:19:19.895Z,11.517766
2023-05-07T06:24:21.462Z,12.047086
2023-05-07T06:29:23.228Z,11.668156
2023-05-07T06:34:24.844Z,12.34514
2023-05-07T06:39:26.725Z,12.926716
2023-05-07T06:44:28.436Z,13.370698
2023-05-07T06:49:30.074Z,13.30802
2023-05-07T06:54:31.830Z,13.593564
2023-05-07T06:59:33.504Z,14.019362
2023-05-07T07:04:35.473Z,14.368452
2023-05-07T07:09:37.177Z,16.374344
2023-05-07T07:14:38.782Z,14.477118
2023-05-07T07:19:40.445Z,14.066408
2023-05-07T07:24:42.055Z,13.94663
2023-05-07T07:29:43.655Z,14.45451
2023-05-07T07:34:45.249Z,13.558432
2023-05-07T07:39:46.843Z,13.688008
2023-05-07T07:44:48.443Z,13.54424
2023-05-07T07:49:50.082Z,13.977594
2023-05-07T07:54:51.884Z,14.121744
2023-05-07T07:59:53.490Z,14.504922
2023-05-07T08:04:55.108Z,13.857926
2023-05-07T08:09:56.727Z,14.354164
2023-05-07T08:14:58.369Z,14.275868
2023-05-07T08:19:59.998Z,14.958958
2023-05-07T08:25:01.661Z,14.293426
2023-05-07T08:30:03.240Z,14.614006
2023-05-07T08:35:04.937Z,15.94925
2023-05-07T08:40:09.268Z,14.947492
2023-05-07T08:45:12.136Z,14.61455
2023-05-07T08:50:13.724Z,14.48374
2023-05-07T08:55:15.447Z,14.951468
2023-05-07T09:00:16.820Z,16.166118
2023-05-07T09:05:18.437Z,16.258636
2023-05-07T09:10:19.930Z,16.78869
2023-05-07T09:15:21.488Z,16.410276
2023-05-07T09:20:22.995Z,15.727334
2023-05-07T09:25:24.556Z,16.179716
2023-05-07T09:30:26.112Z,16.073886
2023-05-07T09:35:27.820Z,15.910414
2023-05-07T09:40:29.498Z,16.453712
2023-05-07T09:45:31.102Z,15.668292
2023-05-07T09:50:32.736Z,15.766536
2023-05-07T09:55:34.303Z,16.2528
2023-05-07T10:00:35.793Z,15.183344
2023-05-07T10:05:37.374Z,15.072386
2023-05-07T10:10:39.015Z,15.611436
2023-05-07T10:15:40.656Z,16.807144
2023-05-07T10:20:42.292Z,16.545686
2023-05-07T10:25:43.897Z,17.241954
2023-05-07T10:30:45.622Z,18.366354
2023-05-07T10:35:47.227Z,18.160762
2023-05-07T10:40:48.891Z,18.249398
2023-05-07T10:45:50.738Z,17.2048
2023-05-07T10:50:52.520Z,17.170374
2023-05-07T10:55:54.368Z,17.100192
2023-05-07T11:00:55.939Z,17.330576
2023-05-07T11:05:57.572Z,16.381236
2023-05-07T11:10:59.378Z,16.256858
2023-05-07T11:16:01.068Z,16.79831
2023-05-07T11:21:02.799Z,17.008312
2023-05-07T11:26:04.421Z,16.781538
2023-05-07T11:31:06.158Z,16.794606
2023-05-07T11:36:07.953Z,16.293944
2023-05-07T11:41:09.263Z,15.103188
2023-05-07T11:46:10.618Z,15.712596
2023-05-07T11:51:12.109Z,16.429164
2023-05-07T11:56:13.450Z,16.413098
2023-05-07T12:01:14.927Z,15.75549
2023-05-07T12:06:16.222Z,16.131
2023-05-07T12:11:17.565Z,16.433574
2023-05-07T12:16:19.131Z,16.408158
2023-05-07T12:21:20.650Z,16.33799
2023-05-07T12:26:21.973Z,16.726812
2023-05-07T12:31:23.270Z,17.346032
2023-05-07T12:36:24.690Z,17.16154
2023-05-07T12:41:26.305Z,17.130384
2023-05-07T12:46:27.966Z,16.520352
2023-05-07T12:51:29.493Z,16.334896
2023-05-07T12:56:31.089Z,16.253248
2023-05-07T13:01:32.754Z,16.694856
2023-05-07T13:06:34.637Z,15.87687
2023-05-07T13:11:36.154Z,16.29279
2023-05-07T13:16:37.721Z,16.042106
2023-05-07T13:21:39.404Z,15.599794
2023-05-07T13:26:40.951Z,15.545678
2023-05-07T13:31:42.677Z,15.260406
2023-05-07T13:36:44.536Z,15.654248
2023-05-07T13:41:46.270Z,14.849954
2023-05-07T13:46:47.965Z,15.363846
2023-05-07T13:51:49.688Z,15.358826
2023-05-07T13:56:51.288Z,15.27734
2023-05-07T14:01:52.870Z,15.535704
2023-05-07T14:06:55.030Z,15.320858
2023-05-07T14:11:56.839Z,15.522026
2023-05-07T14:16:58.689Z,15.782956
2023-05-07T14:22:00.559Z,15.367646
2023-05-07T14:27:02.472Z,14.968226
2023-05-07T14:32:04.156Z,15.192788
2023-05-07T14:37:05.804Z,14.593882
2023-05-07T14:42:07.540Z,15.10654
2023-05-07T14:47:08.898Z,15.811546
2023-05-07T14:52:10.257Z,15.152622
2023-05-07T14:57:11.657Z,14.508354
2023-05-07T15:02:13.001Z,14.929838
2023-05-07T15:07:14.426Z,14.469246
2023-05-07T15:12:15.665Z,14.466776
2023-05-07T15:17:16.973Z,14.602716
2023-05-07T15:22:18.396Z,14.61904
2023-05-07T15:27:19.665Z,14.406406
2023-05-07T15:32:21.023Z,13.9702
2023-05-07T15:37:22.417Z,13.107924
2023-05-07T15:42:24.015Z,13.18808
2023-05-07T15:47:25.328Z,13.192056
2023-05-07T15:52:26.941Z,12.914082
2023-05-07T15:57:28.574Z,12.630574
2023-05-07T16:02:30.238Z,12.147322
2023-05-07T16:07:31.562Z,13.0142
2023-05-07T16:12:32.832Z,11.423322
2023-05-07T16:17:34.169Z,11.643108
2023-05-07T16:22:35.920Z,11.802414
2023-05-07T16:27:37.349Z,11.72067
2023-05-07T16:32:38.824Z,11.812468
2023-05-07T16:37:40.207Z,11.981328
2023-05-07T16:42:41.824Z,12.418402
2023-05-07T16:47:43.411Z,12.067114
2023-05-07T16:52:45.097Z,11.746534
2023-05-07T16:57:46.558Z,12.066666
2023-05-07T17:02:48.066Z,12.415646
2023-05-07T17:07:49.976Z,11.046266
2023-05-07T17:12:51.777Z,10.774142
2023-05-07T17:17:53.386Z,11.463488
2023-05-07T17:22:55.432Z,11.141754
2023-05-07T17:27:57.173Z,10.958892
2023-05-07T17:33:09.356Z,11.221204
2023-05-07T17:38:18.563Z,11.984136
2023-05-07T17:43:20.233Z,11.476284
2023-05-07T17:48:21.871Z,10.361454
2023-05-07T17:53:23.556Z,10.519334
2023-05-07T17:58:24.863Z,10.540516
2023-05-07T18:03:26.287Z,10.57478
2023-05-07T18:08:27.782Z,10.402988
2023-05-07T18:13:29.131Z,11.493056
2023-05-07T18:18:30.473Z,11.770538
2023-05-07T18:23:32.119Z,11.69463
2023-05-07T18:28:33.719Z,10.989666
2023-05-07T18:33:35.351Z,10.718086
2023-05-07T18:38:37.085Z,10.664976
2023-05-07T18:43:38.722Z,10.46754
2023-05-07T18:48:40.331Z,10.378836
2023-05-07T18:53:42.072Z,9.877496
2023-05-07T18:58:43.662Z,10.116414
2023-05-07T19:03:45.247Z,9.49356
2023-05-07T19:08:46.535Z,9.807938
2023-05-07T19:13:48.178Z,9.72332
2023-05-07T19:18:49.785Z,9.75172
2023-05-07T19:23:51.605Z,9.369548
2023-05-07T19:33:57.695Z,9.771748
2023-05-07T19:38:59.300Z,9.832486
2023-05-07T19:44:00.961Z,9.614316
2023-05-07T19:49:02.671Z,10.02566
2023-05-07T19:54:04.400Z,9.637982
2023-05-07T19:59:06.281Z,9.869992
2023-05-07T20:04:08.048Z,10.316496
2023-05-07T20:09:09.679Z,9.697766
2023-05-07T20:14:12.059Z,9.592128
2023-05-07T20:19:14.449Z,10.33415
2023-05-07T20:24:15.863Z,9.920632
2023-05-07T20:29:17.168Z,10.086126
2023-05-07T20:34:18.948Z,11.197428
2023-05-07T20:39:20.343Z,11.123012
2023-05-07T20:44:21.921Z,10.5313
2023-05-07T20:49:23.510Z,11.053822
2023-05-07T20:54:25.110Z,10.784072
2023-05-07T20:59:26.642Z,11.589764
2023-05-07T21:04:28.298Z,11.260702
2023-05-07T21:09:30.013Z,11.85825
2023-05-07T21:14:31.565Z,11.16581
2023-05-07T21:19:33.109Z,11.000426
2023-05-07T21:24:34.379Z,11.737442
2023-05-07T21:29:35.813Z,11.274814
2023-05-07T21:34:37.157Z,11.173476
2023-05-07T21:39:38.441Z,11.563114
2023-05-07T21:44:40.119Z,10.799014
2023-05-07T21:49:41.787Z,11.063972
2023-05-07T21:54:43.406Z,10.8277
2023-05-07T21:59:44.983Z,10.71544
2023-05-07T22:04:46.561Z,10.189118
2023-05-07T22:09:48.209Z,9.817802
2023-05-07T22:14:49.751Z,10.257794
2023-05-07T22:19:51.337Z,9.487696
2023-05-07T22:24:52.908Z,9.274098
2023-05-07T22:29:54.216Z,9.784706
2023-05-07T22:34:55.503Z,10.08656
2023-05-07T22:39:57.143Z,10.149672
2023-05-07T22:44:58.726Z,9.771462
2023-05-07T22:50:00.318Z,9.690548
2023-05-07T22:55:01.801Z,9.3691
2023-05-07T23:00:03.469Z,9.559914
2023-05-07T23:05:05.090Z,9.82574
2023-05-07T23:10:06.766Z,10.067862
2023-05-07T23:15:08.365Z,9.519314
2023-05-07T23:20:09.928Z,9.620652
2023-05-07T23:25:11.402Z,9.147278
2023-05-07T23:30:13.021Z,10.61896
2023-05-07T23:35:14.433Z,11.052058
2023-05-07T23:40:15.713Z,10.919226
2023-05-07T23:45:16.995Z,10.921762
2023-05-07T23:50:18.458Z,9.94005
2023-05-07T23:55:19.797Z,10.430792
